Point Lay, AK

5:05 AM AKDT on March 26, 2017 (GMT -0800)
Point Lay | | Change Station

Elev 23 ft 69.73 °N, 163.01 °W | Updated 9 minutes ago

Overcast
Overcast
-14 °F
Feels Like -26 °F
N
5
Wind Variable Wind from South

Today
High -- | Low -- °F
--% Chance of Precip.
Yesterday
High -- | Low -- °F
Precip. -- in
Pressure 30.13 in
Visibility 0.2 miles
Clouds Overcast 200 ft
Windchill -26 °F
Dew Point -19 °F
Humidity 79%
Rainfall 0.00 in
Snow Depth Not available.
8:21 AM 9:36 PM
Waning Crescent, 3% visible
METAR PPIZ 261256Z AUTO 18004KT 1/4SM HZ OVC002 M26/M28 A3011 RMK AO2 SLP201 T12561283 FZRANO TSNO
Pressure 30.13 in
Visibility 0.2 miles
Clouds Overcast 200 ft
Windchill -26 °F
Dew Point -19 °F
Humidity 79%
Rainfall 0.00 in
Snow Depth Not available.
8:21 AM 9:36 PM
Waning Crescent, 3% visible
METAR PPIZ 261256Z AUTO 18004KT 1/4SM HZ OVC002 M26/M28 A3011 RMK AO2 SLP201 T12561283 FZRANO TSNO

Get Severe Weather Alerts

Thanks for signing up!

Be on the lookout for a verification email in your inbox.

You'll start receiving the daily forecast at 8 AM.

×

10-Day Weather Forecast

Almanac

Astronomy

Mar. 26, 2017 Rise Set
Actual Time
Civil Twilight
Nautical Twilight
Astronomical Twilight
Moon
Length of Visible Light
Length of Day
Tomorrow will be .
, % of the Moon is Illuminated

Today's Extremes

State Highs State Lows

Community

WunderPhotos

Upload Photos

1,962,540 photos uploaded!

WunderBlog® & News

Nearby

Air Quality

  Air Quality AQ Index Pollutant
Not available.

Snow Depth

Station Depth Elevation

Earthquake Activity

City Distance Mag. Time & Date
Minimum magnitude displayed is 2.5.

Earthquake Activity

City Distance Mag. Time & Date
Minimum magnitude displayed is 2.5.

Coastal Water Temperatures

Place Temperature

Stations

Nearby Weather Stations

Station Location Temp. Windchill Dew Point Humidity Wind Precip. Elev Updated Type
                   

Watches & Warnings

There are currently no watches in effect.